createdAt,value
2023-05-06T00:11:35.938Z,10.81
2023-05-06T00:23:36.366Z,10.64
2023-05-06T00:35:36.846Z,10.74
2023-05-06T00:47:37.252Z,10.26
2023-05-06T00:59:37.749Z,9.53
2023-05-06T01:11:38.176Z,9.44
2023-05-06T01:23:38.628Z,9.20
2023-05-06T01:35:39.072Z,9.42
2023-05-06T01:47:39.604Z,10.39
2023-05-06T01:59:39.965Z,10.12
2023-05-06T02:11:40.423Z,10.57
2023-05-06T02:23:40.904Z,10.43
2023-05-06T02:35:41.399Z,10.67
2023-05-06T02:47:41.798Z,10.70
2023-05-06T02:59:42.243Z,10.74
2023-05-06T03:11:42.698Z,11.36
2023-05-06T03:23:43.185Z,11.16
2023-05-06T03:35:43.601Z,11.46
2023-05-06T03:47:44.105Z,11.53
2023-05-06T03:59:44.507Z,11.40
2023-05-06T04:11:44.998Z,11.51
2023-05-06T04:23:45.430Z,11.26
2023-05-06T04:35:45.882Z,11.14
2023-05-06T04:47:46.403Z,11.27
2023-05-06T04:59:46.832Z,11.72
2023-05-06T05:11:47.264Z,11.84
2023-05-06T05:23:47.686Z,12.58
2023-05-06T05:35:48.167Z,12.59
2023-05-06T05:47:48.657Z,12.88
2023-05-06T05:59:49.065Z,13.01
2023-05-06T06:11:49.487Z,13.38
2023-05-06T06:23:49.930Z,13.66
2023-05-06T06:35:50.447Z,14.17
2023-05-06T06:47:50.890Z,14.66
2023-05-06T06:59:51.350Z,14.92
2023-05-06T07:11:51.783Z,14.99
2023-05-06T07:23:52.244Z,15.83
2023-05-06T07:35:52.731Z,16.28
2023-05-06T07:47:53.294Z,16.88
2023-05-06T07:59:53.617Z,17.23
2023-05-06T08:11:54.092Z,17.89
2023-05-06T08:23:54.511Z,18.48
2023-05-06T08:35:54.947Z,19.13
2023-05-06T08:47:55.464Z,20.71
2023-05-06T08:59:55.919Z,20.51
2023-05-06T09:11:56.309Z,21.29
2023-05-06T09:23:56.773Z,21.46
2023-05-06T09:35:57.275Z,20.68
2023-05-06T09:47:57.763Z,20.29
2023-05-06T09:59:58.163Z,20.82
2023-05-06T10:11:58.604Z,22.11
2023-05-06T10:23:59.050Z,22.78
2023-05-06T10:35:59.527Z,22.81
2023-05-06T10:48:00.077Z,23.17
2023-05-06T11:00:00.409Z,23.21
2023-05-06T11:12:00.899Z,23.64
2023-05-06T11:24:01.364Z,23.02
2023-05-06T11:36:01.786Z,22.17
2023-05-06T11:48:02.371Z,22.20
2023-05-06T12:00:02.689Z,22.88
2023-05-06T12:12:03.210Z,22.00
2023-05-06T12:24:03.664Z,21.10
2023-05-06T12:36:04.085Z,20.91
2023-05-06T12:48:04.558Z,20.62
2023-05-06T13:00:05.179Z,20.55
2023-05-06T13:12:05.460Z,19.96
2023-05-06T13:24:05.891Z,19.53
2023-05-06T13:36:06.380Z,20.85
2023-05-06T13:48:06.865Z,21.82
2023-05-06T14:00:07.285Z,26.19
2023-05-06T14:12:07.728Z,26.10
2023-05-06T14:24:08.291Z,22.19
2023-05-06T14:36:08.657Z,21.85
2023-05-06T14:48:09.109Z,20.09
2023-05-06T15:00:09.530Z,19.80
2023-05-06T15:12:10.011Z,20.90
2023-05-06T15:24:10.507Z,22.31
2023-05-06T15:36:10.914Z,23.53
2023-05-06T15:48:11.463Z,22.78
2023-05-06T16:00:12.199Z,23.66
2023-05-06T16:12:12.331Z,24.29
2023-05-06T16:24:12.978Z,21.53
2023-05-06T16:36:13.953Z,21.76
2023-05-06T16:48:13.767Z,19.92
2023-05-06T17:00:14.226Z,19.15
2023-05-06T17:12:14.546Z,18.53
2023-05-06T17:24:15.029Z,17.75
2023-05-06T17:36:15.464Z,17.67
2023-05-06T17:48:15.935Z,17.11
2023-05-06T18:00:16.338Z,16.38
2023-05-06T18:12:16.814Z,16.34
2023-05-06T18:24:17.354Z,15.95
2023-05-06T18:36:17.761Z,15.68
2023-05-06T18:48:18.208Z,15.45
2023-05-06T19:00:18.647Z,15.28
2023-05-06T19:12:19.168Z,14.88
2023-05-06T19:24:19.592Z,14.15
2023-05-06T19:36:20.114Z,14.23
2023-05-06T19:48:20.485Z,14.32
2023-05-06T20:00:20.968Z,13.23
2023-05-06T20:12:21.428Z,13.79
2023-05-06T20:24:21.837Z,13.80
2023-05-06T20:36:22.301Z,13.65
2023-05-06T20:48:22.745Z,12.75
2023-05-06T21:00:23.220Z,13.17
2023-05-06T21:12:23.622Z,13.12
2023-05-06T21:24:24.090Z,12.75
2023-05-06T21:36:24.551Z,12.85
2023-05-06T21:48:25.016Z,12.49
2023-05-06T22:00:25.480Z,12.47
2023-05-06T22:12:25.915Z,12.41
2023-05-06T22:24:26.390Z,11.88
2023-05-06T22:36:26.864Z,11.82
2023-05-06T22:48:27.280Z,11.05
2023-05-06T23:00:27.729Z,10.92
2023-05-06T23:12:28.169Z,11.01
2023-05-06T23:24:28.650Z,10.58
2023-05-06T23:36:29.106Z,10.69
2023-05-06T23:48:29.533Z,9.98
